Time;durP1;ratioP1;P1;durP2;ratioP2;P2;SDS_P1;SDS_P2;PMS_P1;PMS_P2;Temp;Humidity;BMP_temperature;BMP_pressure;BME280_temperature;BME280_humidity;BME280_pressure;Samples;Min_cycle;Max_cycle;Signal;HPM_P1;HPM_P2
2021/01/20 00:01:50;;;;;;;13.82;9.43;;;;;;;4.34;100.00;99812.88;4973222;28;20141;-74
2021/01/20 00:04:17;;;;;;;17.83;9.40;;;;;;;4.18;100.00;99806.69;4952380;28;20043;-72
2021/01/20 00:06:44;;;;;;;15.63;8.95;;;;;;;4.19;100.00;99806.63;4951905;28;20091;-73
2021/01/20 00:09:11;;;;;;;14.10;9.05;;;;;;;4.18;100.00;99799.69;4952711;28;20045;-73
2021/01/20 00:11:38;;;;;;;14.00;9.65;;;;;;;4.18;100.00;99801.47;4954482;28;20054;-73
2021/01/20 00:14:04;;;;;;;15.75;9.73;;;;;;;4.06;100.00;99800.28;4957095;28;20047;-72
2021/01/20 00:16:31;;;;;;;16.70;10.20;;;;;;;4.14;100.00;99807.72;4946472;28;20098;-73
2021/01/20 00:18:58;;;;;;;14.23;9.68;;;;;;;3.99;100.00;99814.47;4961812;28;20057;-72
2021/01/20 00:21:25;;;;;;;18.02;10.55;;;;;;;3.89;100.00;99811.44;4953505;28;20061;-74
2021/01/20 00:23:52;;;;;;;19.05;11.63;;;;;;;3.84;100.00;99815.19;4952951;28;20051;-72
2021/01/20 00:26:18;;;;;;;23.05;12.00;;;;;;;3.76;100.00;99818.09;4950251;28;20394;-73
2021/01/20 00:28:45;;;;;;;19.75;12.43;;;;;;;3.87;100.00;99820.22;4969378;28;20055;-74
2021/01/20 00:31:12;;;;;;;22.38;11.50;;;;;;;3.78;100.00;99822.34;4957188;28;20145;-72
2021/01/20 00:33:39;;;;;;;22.60;12.15;;;;;;;3.76;100.00;99813.75;4963443;28;20051;-73
2021/01/20 00:36:06;;;;;;;19.35;12.20;;;;;;;3.94;100.00;99821.66;4958822;28;20059;-73
2021/01/20 00:38:34;;;;;;;19.65;11.52;;;;;;;3.86;100.00;99826.34;4945914;28;20616;-74
2021/01/20 00:41:01;;;;;;;17.42;10.40;;;;;;;3.84;100.00;99823.81;4955357;28;20510;-72
2021/01/20 00:43:28;;;;;;;18.88;11.25;;;;;;;3.81;100.00;99816.16;4956415;28;20047;-72
2021/01/20 00:45:57;;;;;;;21.70;12.30;;;;;;;3.81;100.00;99814.38;4956148;28;20051;-75
2021/01/20 00:48:24;;;;;;;16.75;11.02;;;;;;;3.72;100.00;99826.97;4933529;28;20070;-73
2021/01/20 00:50:55;;;;;;;17.63;11.48;;;;;;;3.65;100.00;99828.13;4950849;28;20053;-74
2021/01/20 00:53:22;;;;;;;21.90;12.55;;;;;;;3.60;100.00;99827.47;4957738;28;20070;-72
2021/01/20 00:55:49;;;;;;;24.42;13.95;;;;;;;3.42;100.00;99834.31;4962312;28;20048;-74
2021/01/20 00:58:16;;;;;;;23.17;13.75;;;;;;;3.42;100.00;99835.19;4964542;28;20134;-72
2021/01/20 01:00:43;;;;;;;22.25;12.88;;;;;;;3.40;100.00;99841.34;4987313;28;20040;-73
2021/01/20 01:03:10;;;;;;;21.08;12.48;;;;;;;3.47;100.00;99838.44;4965772;28;20067;-72
2021/01/20 01:05:37;;;;;;;24.30;13.30;;;;;;;3.41;100.00;99832.63;4948825;28;20154;-73
2021/01/20 01:08:04;;;;;;;23.52;13.13;;;;;;;3.54;100.00;99839.00;4919396;28;20051;-72
2021/01/20 01:10:31;;;;;;;18.73;11.90;;;;;;;3.59;100.00;99836.22;4950168;28;20055;-74
2021/01/20 01:12:57;;;;;;;22.52;12.70;;;;;;;3.60;100.00;99830.09;4951716;28;20660;-73
2021/01/20 01:15:25;;;;;;;19.20;12.73;;;;;;;3.63;100.00;99828.19;4943140;28;20051;-73
2021/01/20 01:17:51;;;;;;;18.23;11.77;;;;;;;3.65;100.00;99828.13;4946042;28;20051;-73
2021/01/20 01:20:19;;;;;;;18.33;11.23;;;;;;;3.70;100.00;99832.25;4958344;28;20057;-74
2021/01/20 01:22:45;;;;;;;17.70;11.68;;;;;;;3.67;100.00;99831.53;4973774;28;20147;-73
2021/01/20 01:25:12;;;;;;;19.75;12.40;;;;;;;3.75;100.00;99832.03;4974340;28;20051;-73
2021/01/20 01:27:39;;;;;;;17.73;11.40;;;;;;;3.71;100.00;99830.47;4934216;28;20089;-73
2021/01/20 01:30:06;;;;;;;15.30;10.13;;;;;;;3.79;100.00;99828.41;4980486;28;20043;-73
2021/01/20 01:32:33;;;;;;;18.13;12.00;;;;;;;3.78;100.00;99818.88;4980465;28;20067;-73
2021/01/20 01:35:00;;;;;;;17.10;10.45;;;;;;;3.67;100.00;99823.72;4965191;28;20080;-73
2021/01/20 01:37:29;;;;;;;16.75;10.35;;;;;;;3.82;100.00;99825.63;4971078;28;20053;-73
2021/01/20 01:39:56;;;;;;;16.77;10.77;;;;;;;3.94;100.00;99826.88;4949371;28;20123;-74
2021/01/20 01:42:29;;;;;;;13.68;10.07;;;;;;;3.80;100.00;99830.91;4965585;28;20055;-73
2021/01/20 01:44:57;;;;;;;15.85;11.10;;;;;;;3.79;100.00;99834.44;4965641;28;20058;-73
2021/01/20 01:47:24;;;;;;;19.42;12.00;;;;;;;3.79;100.00;99831.00;4975571;28;20058;-74
2021/01/20 01:49:55;;;;;;;15.88;10.43;;;;;;;3.96;100.00;99833.72;4967653;28;20062;-73
2021/01/20 01:52:23;;;;;;;15.98;10.07;;;;;;;3.94;100.00;99835.53;4966750;28;20051;-73
2021/01/20 01:54:52;;;;;;;15.07;10.60;;;;;;;3.97;100.00;99831.94;4941722;29;20051;-73
2021/01/20 01:57:20;;;;;;;16.05;10.65;;;;;;;3.79;100.00;99839.66;4976294;28;20115;-75
2021/01/20 01:59:47;;;;;;;15.77;10.90;;;;;;;3.85;100.00;99838.53;4970668;28;20138;-75
2021/01/20 02:02:14;;;;;;;14.27;10.52;;;;;;;3.75;100.00;99838.09;4965652;28;20109;-76
2021/01/20 02:04:41;;;;;;;18.10;10.50;;;;;;;3.94;100.00;99843.34;4956237;28;20059;-75
2021/01/20 02:07:08;;;;;;;14.57;10.52;;;;;;;3.95;100.00;99839.81;4964877;28;20063;-76
2021/01/20 02:09:36;;;;;;;14.25;10.52;;;;;;;3.94;100.00;99842.50;4965496;28;20054;-76
2021/01/20 02:12:09;;;;;;;12.77;9.75;;;;;;;3.90;100.00;99844.38;4964781;28;20129;-76
2021/01/20 02:14:50;;;;;;;15.13;11.18;;;;;;;3.94;100.00;99832.91;4978628;28;20207;-77
2021/01/20 02:17:29;;;;;;;15.93;11.10;;;;;;;3.83;100.00;99832.56;4960886;28;20055;-77
2021/01/20 02:19:55;;;;;;;15.98;11.80;;;;;;;3.75;100.00;99843.28;4972554;28;20045;-75
2021/01/20 02:22:27;;;;;;;15.43;11.05;;;;;;;3.75;100.00;99845.06;4952474;28;20086;-76
2021/01/20 02:25:14;;;;;;;16.50;10.15;;;;;;;3.73;100.00;99847.72;4966805;28;20054;-77
2021/01/20 02:28:16;;;;;;;16.65;11.20;;;;;;;3.82;100.00;99849.06;4974984;28;20074;-76
2021/01/20 02:30:43;;;;;;;14.90;10.60;;;;;;;3.99;100.00;99848.34;4966217;28;20102;-76
2021/01/20 02:33:11;;;;;;;14.95;11.38;;;;;;;3.89;100.00;99849.66;4961196;28;20095;-75
2021/01/20 02:35:39;;;;;;;15.70;11.02;;;;;;;3.95;100.00;99845.00;4962965;28;20055;-76
2021/01/20 02:38:06;;;;;;;19.65;11.93;;;;;;;3.87;100.00;99841.91;4955832;28;20141;-77
2021/01/20 02:40:34;;;;;;;13.85;10.98;;;;;;;3.86;100.00;99839.38;4946947;28;20047;-76
2021/01/20 02:43:01;;;;;;;20.58;11.43;;;;;;;3.74;100.00;99852.03;4972088;28;20046;-76
2021/01/20 02:45:28;;;;;;;15.35;11.57;;;;;;;3.80;100.00;99850.91;4972319;28;20081;-74
2021/01/20 02:47:55;;;;;;;15.18;12.52;;;;;;;3.72;100.00;99853.84;4973741;28;20122;-74
2021/01/20 02:50:22;;;;;;;16.95;12.85;;;;;;;3.71;100.00;99859.13;4961928;28;20509;-75
2021/01/20 02:52:54;;;;;;;16.20;12.80;;;;;;;3.79;100.00;99852.66;4956731;28;20122;-75
2021/01/20 02:55:22;;;;;;;18.42;13.98;;;;;;;3.64;100.00;99855.06;4950734;28;20058;-76
2021/01/20 02:57:55;;;;;;;18.35;13.13;;;;;;;3.70;100.00;99850.47;4946785;28;20055;-75
2021/01/20 03:00:23;;;;;;;16.75;11.50;;;;;;;3.83;100.00;99853.38;4952978;28;20469;-75
2021/01/20 03:02:52;;;;;;;17.80;12.68;;;;;;;3.81;100.00;99852.59;4974663;28;20054;-74
2021/01/20 03:05:19;;;;;;;19.20;13.50;;;;;;;3.68;100.00;99857.47;4961601;28;20513;-76
2021/01/20 03:07:46;;;;;;;16.08;13.07;;;;;;;3.58;100.00;99856.19;4972569;28;20580;-74
2021/01/20 03:10:13;;;;;;;16.00;12.57;;;;;;;3.67;100.00;99865.38;4958779;28;20061;-75
2021/01/20 03:12:42;;;;;;;16.30;12.73;;;;;;;3.54;100.00;99865.03;4933704;28;20351;-74
2021/01/20 03:15:13;;;;;;;19.83;13.82;;;;;;;3.70;100.00;99860.03;4952505;28;20055;-76
2021/01/20 03:17:40;;;;;;;21.55;13.70;;;;;;;3.68;100.00;99856.63;4928551;28;20043;-73
2021/01/20 03:20:08;;;;;;;21.40;12.93;;;;;;;3.61;100.00;99860.44;4954639;28;20516;-76
2021/01/20 03:22:35;;;;;;;17.92;13.38;;;;;;;3.66;100.00;99863.69;4972207;28;20074;-75
2021/01/20 03:25:01;;;;;;;16.77;12.95;;;;;;;3.65;100.00;99859.34;4956274;28;20058;-75
2021/01/20 03:27:28;;;;;;;16.75;11.45;;;;;;;3.71;100.00;99859.97;4949507;28;20055;-74
2021/01/20 03:29:55;;;;;;;16.35;11.25;;;;;;;3.81;100.00;99850.00;4956576;28;20160;-75
2021/01/20 03:32:22;;;;;;;15.57;10.77;;;;;;;3.76;100.00;99839.78;4951408;28;20401;-76
2021/01/20 03:34:49;;;;;;;16.05;11.13;;;;;;;3.71;100.00;99841.75;4947997;28;20048;-75
2021/01/20 03:37:15;;;;;;;17.92;10.65;;;;;;;3.75;99.98;99845.91;4948676;28;20098;-74
2021/01/20 03:39:42;;;;;;;14.95;11.23;;;;;;;3.71;100.00;99846.09;4969175;28;20061;-75
2021/01/20 03:42:09;;;;;;;16.38;10.95;;;;;;;3.59;100.00;99844.00;4957654;28;20174;-76
2021/01/20 03:44:36;;;;;;;15.27;9.68;;;;;;;3.69;100.00;99842.69;4937219;28;20106;-76
2021/01/20 03:47:03;;;;;;;14.98;10.15;;;;;;;3.67;100.00;99844.53;4954736;28;20055;-75
2021/01/20 03:49:30;;;;;;;16.95;10.88;;;;;;;3.56;100.00;99845.00;4973444;28;20051;-76
2021/01/20 03:51:57;;;;;;;14.18;9.85;;;;;;;3.63;100.00;99837.78;4970523;28;20116;-76
2021/01/20 03:54:24;;;;;;;14.50;10.80;;;;;;;3.52;100.00;99835.63;4982138;28;20070;-76
2021/01/20 03:56:52;;;;;;;13.20;9.60;;;;;;;3.59;99.44;99831.00;4946506;28;20172;-75
2021/01/20 03:59:18;;;;;;;13.48;9.02;;;;;;;3.52;99.10;99818.25;4980983;28;20058;-75
2021/01/20 04:01:45;;;;;;;14.57;9.73;;;;;;;3.51;98.95;99827.00;4971252;28;20031;-75
2021/01/20 04:04:12;;;;;;;14.85;10.20;;;;;;;3.41;99.76;99817.03;4977355;28;20298;-76
2021/01/20 04:06:39;;;;;;;13.07;8.68;;;;;;;3.40;99.04;99823.97;4960090;28;20055;-75
2021/01/20 04:09:06;;;;;;;12.38;8.38;;;;;;;3.30;99.42;99822.69;4963767;28;20050;-75
2021/01/20 04:11:32;;;;;;;13.63;8.43;;;;;;;3.19;99.63;99819.66;4966541;28;20525;-76
2021/01/20 04:13:59;;;;;;;16.40;8.93;;;;;;;3.20;99.26;99818.78;4965335;28;20485;-75
2021/01/20 04:16:26;;;;;;;13.98;8.93;;;;;;;3.15;99.63;99821.56;4965855;28;20058;-76
2021/01/20 04:18:53;;;;;;;12.82;8.38;;;;;;;3.06;99.20;99814.13;4980274;28;20529;-75
2021/01/20 04:21:20;;;;;;;12.90;8.32;;;;;;;2.96;99.48;99812.81;4973651;28;20059;-77
2021/01/20 04:23:47;;;;;;;11.27;7.95;;;;;;;3.03;99.60;99815.13;4958064;28;20050;-76
2021/01/20 04:26:14;;;;;;;13.73;8.43;;;;;;;3.00;99.85;99806.59;4943469;28;20059;-76
2021/01/20 04:28:40;;;;;;;10.77;6.88;;;;;;;3.15;98.31;99811.16;4960465;28;20066;-74
2021/01/20 04:31:07;;;;;;;10.40;7.20;;;;;;;3.07;98.07;99804.59;4957460;28;20059;-76
2021/01/20 04:33:34;;;;;;;9.90;7.45;;;;;;;3.01;98.78;99797.88;4955853;28;20892;-76
2021/01/20 04:36:01;;;;;;;15.38;8.82;;;;;;;3.04;98.33;99803.78;4974695;28;20063;-75
2021/01/20 04:38:27;;;;;;;13.82;7.95;;;;;;;2.92;99.00;99790.44;4953147;28;20059;-76
2021/01/20 04:40:55;;;;;;;12.68;7.45;;;;;;;2.86;99.22;99791.53;4973333;28;20046;-76
2021/01/20 04:43:22;;;;;;;16.00;7.95;;;;;;;2.89;98.85;99783.63;4940480;28;20071;-76
2021/01/20 04:45:49;;;;;;;9.85;7.13;;;;;;;2.85;99.12;99789.88;4972922;28;20051;-76
2021/01/20 04:48:16;;;;;;;14.13;7.13;;;;;;;2.88;98.70;99786.28;4957926;28;20102;-76
2021/01/20 04:50:44;;;;;;;14.65;7.88;;;;;;;2.84;98.29;99780.38;4959319;28;20134;-76
2021/01/20 04:53:12;;;;;;;13.80;7.47;;;;;;;2.80;97.58;99773.63;4957993;28;20133;-74
2021/01/20 04:55:43;;;;;;;12.80;8.43;;;;;;;2.69;98.30;99779.22;4958227;28;20054;-77
2021/01/20 04:58:11;;;;;;;10.23;6.97;;;;;;;2.94;96.53;99775.66;4949750;28;20067;-75
2021/01/20 05:00:41;;;;;;;12.65;6.93;;;;;;;3.07;95.83;99768.19;4953348;28;20488;-76
2021/01/20 05:03:09;;;;;;;12.73;6.50;;;;;;;3.02;95.59;99766.63;4949308;28;20036;-74
2021/01/20 05:05:36;;;;;;;11.38;6.55;;;;;;;3.23;94.78;99769.22;4946123;29;20066;-76
2021/01/20 05:08:04;;;;;;;14.55;5.90;;;;;;;3.03;95.19;99768.31;4970128;28;20047;-76
2021/01/20 05:10:30;;;;;;;10.30;5.82;;;;;;;3.05;94.93;99770.84;4964060;28;20560;-75
2021/01/20 05:12:57;;;;;;;14.77;6.57;;;;;;;3.14;94.66;99767.00;4958178;28;20375;-75
2021/01/20 05:15:32;;;;;;;9.77;5.75;;;;;;;3.11;94.30;99775.81;4955521;28;20055;-77
2021/01/20 05:18:05;;;;;;;13.30;5.93;;;;;;;3.09;94.75;99768.97;4954266;28;20043;-76
2021/01/20 05:20:34;;;;;;;12.38;5.60;;;;;;;3.14;94.40;99761.81;4975875;28;20048;-76
2021/01/20 05:23:05;;;;;;;9.70;5.57;;;;;;;3.20;93.96;99764.16;4953627;28;20055;-75
2021/01/20 05:25:35;;;;;;;12.35;7.18;;;;;;;3.34;93.15;99760.97;4945804;28;20047;-73
2021/01/20 05:28:37;;;;;;;11.77;5.90;;;;;;;3.22;94.05;99754.53;4963341;28;20985;-74
2021/01/20 05:31:04;;;;;;;11.35;6.80;;;;;;;3.18;94.41;99756.41;4945882;28;20064;-72
2021/01/20 05:33:36;;;;;;;13.05;6.35;;;;;;;3.01;95.20;99764.06;4963968;28;20540;-72
2021/01/20 05:36:10;;;;;;;9.57;6.07;;;;;;;3.09;94.97;99762.00;4945448;28;20553;-72
2021/01/20 05:38:44;;;;;;;9.63;5.57;;;;;;;3.04;95.18;99758.75;4962937;28;20055;-74
2021/01/20 05:41:22;;;;;;;12.18;6.93;;;;;;;3.08;94.98;99756.88;4972632;28;20035;-72
2021/01/20 05:44:09;;;;;;;12.30;7.05;;;;;;;3.02;95.45;99757.97;4972133;28;20537;-72
2021/01/20 05:46:37;;;;;;;14.43;6.10;;;;;;;3.16;95.39;99770.41;4960404;28;20082;-74
2021/01/20 05:49:05;;;;;;;9.20;5.65;;;;;;;3.15;95.29;99763.50;4952880;28;20804;-74
2021/01/20 05:51:44;;;;;;;11.10;6.60;;;;;;;3.00;95.65;99760.63;4955944;28;20059;-71
2021/01/20 05:54:11;;;;;;;8.48;5.53;;;;;;;3.10;96.11;99768.03;4965402;28;20475;-74
2021/01/20 05:56:38;;;;;;;10.02;6.38;;;;;;;3.10;95.45;99760.25;4931356;29;20047;-72
2021/01/20 05:59:09;;;;;;;9.48;5.35;;;;;;;2.91;95.84;99768.81;4955065;28;20055;-73
2021/01/20 06:01:37;;;;;;;10.68;5.95;;;;;;;2.77;96.52;99774.56;4946173;28;20549;-72
2021/01/20 06:04:05;;;;;;;9.90;5.85;;;;;;;2.68;97.00;99769.75;4961493;28;20061;-72
2021/01/20 06:06:32;;;;;;;10.88;5.53;;;;;;;2.71;96.72;99769.63;4947238;28;20077;-74
2021/01/20 06:09:00;;;;;;;12.25;6.07;;;;;;;2.66;96.43;99766.38;4965842;28;20054;-74
2021/01/20 06:11:27;;;;;;;9.98;5.53;;;;;;;2.63;96.80;99776.88;4958851;29;20031;-73
2021/01/20 06:13:57;;;;;;;9.63;5.68;;;;;;;2.63;96.33;99774.28;4963556;28;20061;-72
2021/01/20 06:16:27;;;;;;;9.95;5.90;;;;;;;2.63;96.50;99770.84;4987153;28;20497;-74
2021/01/20 06:19:02;;;;;;;10.05;5.57;;;;;;;2.69;95.86;99774.03;4957013;28;20059;-73
2021/01/20 06:21:30;;;;;;;12.25;5.38;;;;;;;2.73;95.36;99773.00;4952355;28;20044;-74
2021/01/20 06:24:00;;;;;;;13.48;5.38;;;;;;;2.68;95.51;99772.34;4957695;28;20548;-73
2021/01/20 06:26:26;;;;;;;7.93;5.05;;;;;;;2.72;95.23;99762.69;4963929;28;20062;-74
2021/01/20 06:28:57;;;;;;;9.88;5.22;;;;;;;2.75;94.51;99768.59;4950103;28;20079;-72
2021/01/20 06:31:25;;;;;;;8.65;4.75;;;;;;;2.78;94.51;99770.22;4954352;28;20544;-76
2021/01/20 06:33:52;;;;;;;6.45;5.15;;;;;;;2.85;94.53;99769.06;4931075;28;20054;-77
2021/01/20 06:36:32;;;;;;;9.80;5.25;;;;;;;3.00;92.99;99770.19;4968684;28;20055;-76
2021/01/20 06:38:59;;;;;;;7.03;4.03;;;;;;;2.94;92.99;99760.88;4964408;28;20039;-77
2021/01/20 06:41:37;;;;;;;8.57;4.80;;;;;;;2.95;93.23;99770.38;4964398;28;20055;-75
2021/01/20 06:44:08;;;;;;;7.25;4.72;;;;;;;2.94;93.20;99776.50;4958735;28;20054;-76
2021/01/20 06:46:35;;;;;;;7.75;5.03;;;;;;;2.97;92.77;99768.56;4933345;28;20106;-75
2021/01/20 06:49:03;;;;;;;9.98;4.45;;;;;;;3.05;92.49;99763.88;4941251;28;20080;-75
2021/01/20 06:51:30;;;;;;;11.48;5.00;;;;;;;2.94;92.96;99768.69;4945002;28;20057;-76
2021/01/20 06:54:05;;;;;;;12.55;4.70;;;;;;;2.76;93.34;99777.25;4931586;28;20047;-75
2021/01/20 06:56:33;;;;;;;;;;;;;;;2.96;92.66;99766.84;4941859;28;20055;-76
2021/01/20 06:59:16;;;;;;;7.60;4.38;;;;;;;3.14;91.79;99769.59;4942304;28;19969;-76
2021/01/20 07:02:03;;;;;;;9.82;4.45;;;;;;;2.92;92.17;99765.28;4955071;28;20043;-74
2021/01/20 07:04:37;;;;;;;8.32;4.18;;;;;;;3.18;90.80;99768.56;4949059;28;20066;-77
2021/01/20 07:07:08;;;;;;;10.20;4.07;;;;;;;3.22;90.11;99764.94;4958199;28;20054;-78
2021/01/20 07:09:50;;;;;;;10.15;4.82;;;;;;;3.12;90.24;99772.28;4953839;28;20051;-76
2021/01/20 07:12:21;;;;;;;6.05;3.78;;;;;;;3.05;90.24;99763.88;4962121;28;20069;-75
2021/01/20 07:14:53;;;;;;;8.07;4.13;;;;;;;3.18;89.48;99769.41;4965957;28;20413;-76
2021/01/20 07:17:20;;;;;;;11.20;4.75;;;;;;;3.22;89.15;99764.94;4940491;28;20051;-75
2021/01/20 07:19:48;;;;;;;11.95;4.13;;;;;;;3.39;88.70;99764.22;4941567;28;20055;-75
2021/01/20 07:22:17;;;;;;;6.43;3.90;;;;;;;3.39;88.50;99764.22;4942568;28;20051;-75
2021/01/20 07:24:44;;;;;;;9.52;4.15;;;;;;;3.40;89.10;99761.53;4955360;28;20085;-75
2021/01/20 07:27:12;;;;;;;7.97;3.97;;;;;;;3.49;88.25;99766.34;4941831;28;20166;-73
2021/01/20 07:29:39;;;;;;;9.70;3.70;;;;;;;3.51;88.03;99763.66;4932240;28;20049;-74
2021/01/20 07:32:07;;;;;;;9.43;3.80;;;;;;;3.42;86.67;99764.06;4954634;28;20058;-75
2021/01/20 07:34:43;;;;;;;8.65;4.05;;;;;;;3.34;88.04;99759.22;4942048;28;20051;-75
2021/01/20 07:37:16;;;;;;;6.10;3.45;;;;;;;3.50;88.09;99770.63;4940098;28;20102;-76
2021/01/20 07:39:45;;;;;;;6.90;3.55;;;;;;;3.37;87.56;99764.25;4954625;28;20039;-74
2021/01/20 07:42:12;;;;;;;7.25;3.38;;;;;;;3.37;87.75;99776.44;4955889;28;20359;-73
2021/01/20 07:44:48;;;;;;;8.63;4.15;;;;;;;3.46;87.15;99781.22;4938836;28;20051;-75
2021/01/20 07:47:15;;;;;;;7.32;3.75;;;;;;;3.39;87.33;99778.06;4947306;28;20500;-77
2021/01/20 07:49:53;;;;;;;8.10;3.60;;;;;;;3.37;87.90;99782.47;4920167;28;20138;-75
2021/01/20 07:52:20;;;;;;;7.60;4.07;;;;;;;3.28;88.59;99777.66;4967440;28;20090;-75
2021/01/20 07:54:50;;;;;;;14.35;3.45;;;;;;;3.59;86.89;99776.34;4923199;28;20497;-75
2021/01/20 07:57:21;;;;;;;14.48;4.10;;;;;;;3.69;86.80;99769.81;4943971;28;20049;-75
2021/01/20 08:00:03;;;;;;;8.07;3.28;;;;;;;3.87;85.40;99771.59;4953078;28;20075;-76
2021/01/20 08:02:30;;;;;;;10.27;3.95;;;;;;;3.83;86.23;99770.06;4957236;28;20079;-74
2021/01/20 08:04:59;;;;;;;8.15;4.43;;;;;;;3.76;85.87;99774.69;4946243;28;20051;-76
2021/01/20 08:07:26;;;;;;;9.88;4.03;;;;;;;3.76;86.34;99771.25;4962708;28;20128;-76
2021/01/20 08:09:53;;;;;;;8.95;3.70;;;;;;;3.70;85.84;99768.94;4977117;28;20525;-74
2021/01/20 08:12:25;;;;;;;10.85;3.85;;;;;;;3.85;85.76;99765.63;4948703;28;20153;-76
2021/01/20 08:14:52;;;;;;;12.35;4.30;;;;;;;3.89;85.19;99756.78;4946160;28;20525;-78
2021/01/20 08:17:22;;;;;;;11.07;4.30;;;;;;;4.11;84.77;99768.81;4944616;28;20043;-76
2021/01/20 08:19:54;;;;;;;9.93;4.57;;;;;;;4.30;84.36;99772.25;4929230;28;20378;-78
2021/01/20 08:22:21;;;;;;;8.80;4.70;;;;;;;4.38;83.81;99771.91;4935040;28;20903;-77
2021/01/20 08:24:49;;;;;;;11.57;5.07;;;;;;;4.65;83.53;99759.31;4941743;28;20039;-78
2021/01/20 08:27:25;;;;;;;8.90;4.85;;;;;;;4.80;81.37;99769.00;4955879;28;20066;-76
2021/01/20 08:29:53;;;;;;;8.40;4.35;;;;;;;5.27;80.17;99764.03;4962922;28;20756;-78
2021/01/20 08:32:20;;;;;;;10.65;4.45;;;;;;;5.88;77.28;99766.97;4960897;28;20571;-77
2021/01/20 08:34:49;;;;;;;7.32;3.72;;;;;;;5.79;77.20;99760.47;4991218;28;20049;-78
2021/01/20 08:37:18;;;;;;;8.57;3.70;;;;;;;5.74;77.43;99765.09;4962795;28;20105;-77
2021/01/20 08:39:59;;;;;;;10.68;3.88;;;;;;;5.45;78.02;99764.84;4957429;28;20043;-78
2021/01/20 08:42:36;;;;;;;8.45;3.85;;;;;;;5.24;79.07;99764.16;4972440;28;20050;-78
2021/01/20 08:45:04;;;;;;;7.93;4.15;;;;;;;4.84;79.61;99762.72;4966629;28;20047;-77
2021/01/20 08:47:32;;;;;;;8.50;4.65;;;;;;;4.85;79.64;99767.00;4970603;28;20055;-77
2021/01/20 08:49:58;;;;;;;7.57;3.35;;;;;;;4.73;80.53;99760.63;4931486;28;20031;-80
2021/01/20 08:52:40;;;;;;;6.85;3.65;;;;;;;4.72;81.08;99758.09;4949135;28;20469;-78
2021/01/20 08:55:19;;;;;;;5.63;3.83;;;;;;;4.67;81.50;99771.34;4942099;28;20134;-79
2021/01/20 08:57:46;;;;;;;7.70;3.63;;;;;;;4.64;81.49;99760.22;4945410;28;20109;-78
2021/01/20 09:00:13;;;;;;;7.70;4.22;;;;;;;4.68;81.13;99759.16;4928661;28;20066;-77
2021/01/20 09:02:40;;;;;;;9.48;4.10;;;;;;;4.64;80.79;99758.47;4961591;28;21233;-79
2021/01/20 09:05:14;;;;;;;10.18;3.85;;;;;;;4.72;81.35;99752.88;4948270;28;20284;-76
2021/01/20 09:07:41;;;;;;;8.45;3.70;;;;;;;4.77;80.07;99743.06;4959571;28;20065;-77
2021/01/20 09:10:08;;;;;;;5.45;3.50;;;;;;;4.90;80.18;99751.97;4944307;28;20051;-76
2021/01/20 09:12:35;;;;;;;7.05;3.53;;;;;;;5.12;79.83;99741.31;4949722;28;20103;-77
2021/01/20 09:15:02;;;;;;;10.02;3.35;;;;;;;5.02;78.97;99748.75;4943312;28;20117;-77
2021/01/20 09:17:29;;;;;;;7.80;3.22;;;;;;;5.05;78.58;99748.59;4951138;28;20071;-77
2021/01/20 09:19:56;;;;;;;7.63;3.20;;;;;;;4.93;78.91;99746.59;4957996;28;20050;-76
2021/01/20 09:22:23;;;;;;;6.68;3.20;;;;;;;5.01;79.71;99744.47;4968650;28;20070;-76
2021/01/20 09:24:49;;;;;;;9.48;3.35;;;;;;;4.93;79.50;99746.59;4960095;28;20042;-76
2021/01/20 09:27:16;;;;;;;7.72;3.63;;;;;;;5.04;79.23;99739.09;4943674;28;20055;-78
2021/01/20 09:29:43;;;;;;;6.80;3.70;;;;;;;5.26;78.13;99735.38;4961029;28;20126;-77
2021/01/20 09:32:10;;;;;;;8.02;2.88;;;;;;;5.26;78.51;99746.66;4963714;28;20082;-77
2021/01/20 09:34:37;;;;;;;9.82;3.78;;;;;;;5.43;77.28;99735.34;4942433;28;20055;-77
2021/01/20 09:37:04;;;;;;;6.15;3.78;;;;;;;5.53;77.24;99736.56;4946161;28;20849;-76
2021/01/20 09:39:32;;;;;;;11.82;3.47;;;;;;;5.62;75.94;99730.00;4941011;28;20035;-76
2021/01/20 09:41:58;;;;;;;7.35;3.22;;;;;;;5.47;76.85;99742.09;4942002;28;20090;-77
2021/01/20 09:44:25;;;;;;;5.85;3.47;;;;;;;5.59;77.04;99738.88;4940548;28;20070;-78
2021/01/20 09:46:52;;;;;;;10.18;3.78;;;;;;;5.70;75.94;99735.69;4957685;28;20059;-77
2021/01/20 09:49:20;;;;;;;6.38;3.20;;;;;;;5.61;75.80;99730.94;4944117;28;20475;-76
2021/01/20 09:51:46;;;;;;;6.85;3.78;;;;;;;5.86;75.40;99725.28;4959486;28;20051;-76
2021/01/20 09:54:13;;;;;;;8.00;3.03;;;;;;;5.92;74.33;99732.81;4945653;28;20162;-76
2021/01/20 09:56:40;;;;;;;8.20;3.10;;;;;;;6.11;74.23;99731.78;4953378;28;20071;-77
2021/01/20 09:59:07;;;;;;;9.27;3.45;;;;;;;6.22;73.74;99730.28;4937910;28;20631;-74
2021/01/20 10:01:35;;;;;;;7.85;3.13;;;;;;;6.07;74.51;99731.13;4961130;28;20059;-76
2021/01/20 10:04:02;;;;;;;9.88;3.40;;;;;;;6.34;73.48;99729.59;4948001;28;20530;-77
2021/01/20 10:06:29;;;;;;;6.03;3.22;;;;;;;6.43;73.44;99720.38;4941325;28;20048;-77
2021/01/20 10:08:57;;;;;;;9.18;3.92;;;;;;;6.35;72.41;99717.38;4955759;28;20074;-78
2021/01/20 10:11:23;;;;;;;8.68;3.13;;;;;;;6.46;71.92;99712.38;4929211;28;20097;-76
2021/01/20 10:13:50;;;;;;;10.07;3.40;;;;;;;6.32;72.79;99709.72;4945398;28;20634;-78
2021/01/20 10:16:17;;;;;;;10.93;2.90;;;;;;;6.32;72.04;99707.09;4965080;28;20958;-77
2021/01/20 10:18:46;;;;;;;5.28;2.85;;;;;;;6.26;73.26;99712.66;4964798;28;20059;-76
2021/01/20 10:21:13;;;;;;;14.18;3.72;;;;;;;6.41;72.35;99697.91;4947241;28;20039;-75
2021/01/20 10:23:40;;;;;;;4.60;2.90;;;;;;;6.57;71.74;99696.94;4943229;28;20059;-76
2021/01/20 10:26:06;;;;;;;6.20;3.35;;;;;;;6.68;71.54;99690.25;4947021;28;20059;-78
2021/01/20 10:28:33;;;;;;;5.53;2.97;;;;;;;6.78;70.78;99679.16;4936013;28;20166;-76
2021/01/20 10:31:00;;;;;;;5.78;2.58;;;;;;;6.88;70.09;99682.06;4967727;28;20055;-75
2021/01/20 10:33:27;;;;;;;4.82;2.60;;;;;;;6.93;70.21;99673.94;4947645;28;20054;-77
2021/01/20 10:35:57;;;;;;;5.15;3.00;;;;;;;6.90;70.38;99672.38;4951686;28;20140;-76
2021/01/20 10:38:24;;;;;;;5.75;2.65;;;;;;;6.83;70.28;99665.81;4958047;28;20070;-77
2021/01/20 10:40:51;;;;;;;7.60;2.33;;;;;;;6.95;69.38;99657.25;4932247;28;20133;-77
2021/01/20 10:43:17;;;;;;;7.85;2.47;;;;;;;6.98;69.34;99650.97;4942605;28;20055;-77
2021/01/20 10:45:44;;;;;;;5.53;2.90;;;;;;;6.95;70.00;99649.38;4942923;28;20062;-76
2021/01/20 10:48:11;;;;;;;9.35;3.33;;;;;;;7.02;69.44;99655.09;4963514;28;20075;-77
2021/01/20 10:50:38;;;;;;;7.00;3.05;;;;;;;7.15;69.33;99661.28;4956445;28;20063;-75
2021/01/20 10:53:05;;;;;;;8.05;2.65;;;;;;;7.00;69.09;99657.81;4973982;28;20350;-77
2021/01/20 10:55:31;;;;;;;5.50;2.83;;;;;;;7.15;68.90;99663.03;4968937;28;20742;-76
2021/01/20 10:57:58;;;;;;;9.30;3.17;;;;;;;6.99;68.56;99661.34;4957876;28;20089;-77
2021/01/20 11:00:25;;;;;;;5.63;3.00;;;;;;;7.01;68.16;99656.88;4948084;28;20055;-78
2021/01/20 11:02:52;;;;;;;5.80;3.17;;;;;;;7.03;68.70;99665.47;4958654;28;20063;-79
2021/01/20 11:05:19;;;;;;;5.82;3.05;;;;;;;7.18;67.54;99665.50;4977377;28;20066;-78
2021/01/20 11:07:46;;;;;;;8.25;2.90;;;;;;;7.30;69.24;99664.75;4952543;28;20114;-77
2021/01/20 11:10:13;;;;;;;4.47;2.67;;;;;;;7.53;67.37;99669.41;4967184;28;20060;-76
2021/01/20 11:12:40;;;;;;;6.25;2.67;;;;;;;7.34;67.18;99658.41;4949272;28;20043;-77
2021/01/20 11:15:08;;;;;;;6.00;2.40;;;;;;;7.26;67.47;99653.63;4967887;28;20063;-78
2021/01/20 11:17:35;;;;;;;5.75;2.95;;;;;;;7.57;66.19;99663.06;4946578;28;20055;-77
2021/01/20 11:20:02;;;;;;;7.07;2.45;;;;;;;7.67;65.68;99665.09;4960050;28;20053;-77
2021/01/20 11:22:29;;;;;;;10.50;2.95;;;;;;;7.49;67.29;99659.22;4960188;28;20051;-77
2021/01/20 11:25:02;;;;;;;5.07;2.53;;;;;;;7.43;67.64;99665.69;4936465;28;20066;-77
2021/01/20 11:27:28;;;;;;;4.25;2.53;;;;;;;7.72;64.69;99666.50;4946984;28;20058;-78
2021/01/20 11:29:55;;;;;;;5.95;2.42;;;;;;;7.84;64.63;99662.28;4948525;28;20141;-77
2021/01/20 11:32:22;;;;;;;8.60;2.80;;;;;;;7.91;65.10;99663.56;4957802;28;20051;-77
2021/01/20 11:34:49;;;;;;;6.18;2.60;;;;;;;7.74;64.79;99661.16;4939520;28;20055;-76
2021/01/20 11:37:16;;;;;;;3.50;2.35;;;;;;;7.78;65.06;99646.94;4951811;28;20459;-78
2021/01/20 11:39:42;;;;;;;4.82;2.22;;;;;;;7.89;64.47;99641.03;4959680;28;20838;-75